createdAt,value
2022-11-30T00:00:35.045Z,585.8
2022-11-30T00:01:37.262Z,585.5
2022-11-30T00:02:40.222Z,585.6
2022-11-30T00:03:42.750Z,585.3
2022-11-30T00:04:46.269Z,585.4
2022-11-30T00:05:48.671Z,585.6
2022-11-30T00:06:50.883Z,585.3
2022-11-30T00:07:53.743Z,585.7
2022-11-30T00:08:56.370Z,585.6
2022-11-30T00:09:58.850Z,585.7
2022-11-30T00:11:01.329Z,585.5
2022-11-30T00:12:03.316Z,585.6
2022-11-30T00:13:05.527Z,584.9
2022-11-30T00:14:07.724Z,585.3
2022-11-30T00:15:09.985Z,585.9
2022-11-30T00:16:12.175Z,585.6
2022-11-30T00:17:14.665Z,585.6
2022-11-30T00:18:17.147Z,585.8
2022-11-30T00:19:19.624Z,585.5
2022-11-30T00:20:21.833Z,585.5
2022-11-30T00:21:24.317Z,585.8
2022-11-30T00:22:26.806Z,585.6
2022-11-30T00:23:29.292Z,585.6
2022-11-30T00:24:31.863Z,585.4
2022-11-30T00:25:34.344Z,585.3
2022-11-30T00:26:36.827Z,585
2022-11-30T00:27:39.320Z,585.5
2022-11-30T00:28:41.511Z,585.5
2022-11-30T00:29:43.454Z,585.5
2022-11-30T00:30:46.040Z,585.6
2022-11-30T00:31:48.251Z,585.2
2022-11-30T00:32:50.767Z,585.6
2022-11-30T00:33:53.325Z,585.7
2022-11-30T00:34:55.808Z,585.7
2022-11-30T00:35:58.300Z,585.7
2022-11-30T00:37:00.780Z,585.1
2022-11-30T00:38:02.437Z,585.4
2022-11-30T00:39:04.921Z,585.5
2022-11-30T00:40:07.523Z,585.2
2022-11-30T00:41:10.020Z,584.7
2022-11-30T00:42:12.218Z,585
2022-11-30T00:43:14.425Z,585
2022-11-30T00:44:16.632Z,585
2022-11-30T00:45:19.114Z,584.5
2022-11-30T00:46:21.983Z,584.8
2022-11-30T00:47:24.231Z,585.1
2022-11-30T00:48:26.709Z,584.4
2022-11-30T00:49:29.199Z,584.4
2022-11-30T00:50:31.409Z,584.5
2022-11-30T00:51:33.892Z,584.3
2022-11-30T00:52:36.369Z,584.3
2022-11-30T00:53:38.553Z,584.3
2022-11-30T00:54:41.029Z,584
2022-11-30T00:55:43.613Z,584.1
2022-11-30T00:56:45.822Z,584.2
2022-11-30T00:57:48.296Z,583.8
2022-11-30T00:58:50.505Z,583.8
2022-11-30T00:59:52.974Z,583.8
2022-11-30T01:00:55.221Z,583.5
2022-11-30T01:01:57.437Z,583
2022-11-30T01:02:59.641Z,583.5
2022-11-30T01:04:01.848Z,583.4
2022-11-30T01:05:04.091Z,583.4
2022-11-30T01:06:06.298Z,583.6
2022-11-30T01:07:08.773Z,583.5
2022-11-30T01:08:11.437Z,583.4
2022-11-30T01:09:13.918Z,583.6
2022-11-30T01:10:16.130Z,583.6
2022-11-30T01:11:18.734Z,583.6
2022-11-30T01:12:20.661Z,583.8
2022-11-30T01:13:22.875Z,583.9
2022-11-30T01:14:25.068Z,583.6
2022-11-30T01:15:27.260Z,583.6
2022-11-30T01:16:28.908Z,583.9
2022-11-30T01:17:31.097Z,583.6
2022-11-30T01:18:33.599Z,583.2
2022-11-30T01:19:36.069Z,583.6
2022-11-30T01:20:38.572Z,583.3
2022-11-30T01:21:40.751Z,583.3
2022-11-30T01:22:42.955Z,583.3
2022-11-30T01:23:45.185Z,583.3
2022-11-30T01:24:49.408Z,583.6
2022-11-30T01:25:51.951Z,583.5
2022-11-30T01:26:54.524Z,583.4
2022-11-30T01:27:56.723Z,583
2022-11-30T01:28:59.203Z,583.3
2022-11-30T01:30:01.684Z,583.6
2022-11-30T01:31:04.763Z,583.5
2022-11-30T01:32:06.992Z,583.3
2022-11-30T01:33:09.201Z,583.1
2022-11-30T01:34:11.397Z,583.4
2022-11-30T01:35:13.056Z,583.5
2022-11-30T01:36:15.549Z,583.7
2022-11-30T01:37:17.741Z,583.6
2022-11-30T01:38:19.647Z,583.2
2022-11-30T01:39:21.863Z,583.3
2022-11-30T01:40:23.804Z,583.3
2022-11-30T01:41:26.004Z,583.8
2022-11-30T01:42:28.578Z,583.6
2022-11-30T01:43:31.069Z,583.9
2022-11-30T01:44:33.266Z,583.4
2022-11-30T01:45:35.470Z,583.1
2022-11-30T01:46:38.103Z,583.7
2022-11-30T01:47:40.615Z,583.3
2022-11-30T01:48:42.545Z,583.2
2022-11-30T01:49:45.041Z,583.5
2022-11-30T01:50:46.947Z,583.5
2022-11-30T01:51:49.458Z,583.4
2022-11-30T01:52:51.657Z,583.2
2022-11-30T01:53:53.598Z,582.9
2022-11-30T01:54:56.087Z,583.7
2022-11-30T01:55:58.265Z,583.4
2022-11-30T01:57:00.740Z,583.3
2022-11-30T01:58:03.320Z,583.2
2022-11-30T01:59:05.526Z,583.3
2022-11-30T02:00:08.005Z,583.4
2022-11-30T02:01:10.417Z,583.2
2022-11-30T02:02:12.932Z,583.3
2022-11-30T02:03:14.859Z,583.3
2022-11-30T02:04:17.341Z,583
2022-11-30T02:05:19.827Z,583.3
2022-11-30T02:06:22.302Z,583.2
2022-11-30T02:07:25.413Z,583.4
2022-11-30T02:08:28.700Z,583.9
2022-11-30T02:09:31.000Z,584
2022-11-30T02:10:32.939Z,583.6
2022-11-30T02:11:35.431Z,583.6
2022-11-30T02:12:37.633Z,584.1
2022-11-30T02:13:40.216Z,583.9
2022-11-30T02:14:42.885Z,584.1
2022-11-30T02:15:46.190Z,584.1
2022-11-30T02:16:48.934Z,584.1
2022-11-30T02:17:51.680Z,584.2
2022-11-30T02:18:54.153Z,583.9
2022-11-30T02:19:56.639Z,584
2022-11-30T02:20:58.842Z,583.7
2022-11-30T02:22:01.051Z,584.1
2022-11-30T02:23:03.552Z,583.5
2022-11-30T02:24:06.589Z,583.4
2022-11-30T02:25:09.211Z,583.8
2022-11-30T02:26:11.645Z,583.4
2022-11-30T02:27:14.977Z,583.4
2022-11-30T02:28:17.290Z,582.9
2022-11-30T02:29:19.758Z,583.4
2022-11-30T02:30:22.233Z,583.2
2022-11-30T02:31:25.024Z,583.2
2022-11-30T02:32:27.592Z,582.9
2022-11-30T02:33:29.791Z,582.7
2022-11-30T02:34:32.284Z,582.7
2022-11-30T02:35:34.761Z,582.8
2022-11-30T02:36:37.233Z,582.8
2022-11-30T02:37:39.700Z,582.4
2022-11-30T02:38:42.215Z,582.6
2022-11-30T02:39:45.293Z,582.7
2022-11-30T02:40:47.506Z,582.7
2022-11-30T02:41:49.703Z,582.6
2022-11-30T02:42:52.179Z,582.9
2022-11-30T02:43:54.654Z,582.4
2022-11-30T02:44:56.925Z,582.3
2022-11-30T02:45:59.742Z,582.2
2022-11-30T02:47:01.959Z,582
2022-11-30T02:48:04.158Z,581.8
2022-11-30T02:49:06.373Z,581.5
2022-11-30T02:50:08.854Z,581.7
2022-11-30T02:51:11.050Z,582
2022-11-30T02:52:13.521Z,582.1
2022-11-30T02:53:15.749Z,582.1
2022-11-30T02:54:18.246Z,582.4
2022-11-30T02:55:20.726Z,581.9
2022-11-30T02:56:23.211Z,582.3
2022-11-30T02:57:25.411Z,582.3
2022-11-30T02:58:27.886Z,582.4
2022-11-30T02:59:30.079Z,582.4
2022-11-30T03:00:32.668Z,582.3
2022-11-30T03:01:35.433Z,582.7
2022-11-30T03:02:38.123Z,582.2
2022-11-30T03:03:40.627Z,582.1
2022-11-30T03:04:43.129Z,582.2
2022-11-30T03:05:45.159Z,582.1
2022-11-30T03:06:47.647Z,582.3
2022-11-30T03:07:50.231Z,582
2022-11-30T03:08:52.736Z,582.1
2022-11-30T03:09:54.958Z,581.9
2022-11-30T03:10:57.159Z,581.8
2022-11-30T03:11:59.652Z,581.8
2022-11-30T03:13:02.000Z,582.1
2022-11-30T03:14:03.632Z,582.1
2022-11-30T03:15:06.103Z,581.7
2022-11-30T03:16:08.889Z,581.5
2022-11-30T03:17:11.385Z,581.8
2022-11-30T03:18:13.873Z,582.4
2022-11-30T03:19:16.138Z,581.4
2022-11-30T03:20:18.348Z,581.3
2022-11-30T03:21:20.547Z,581.4
2022-11-30T03:22:23.034Z,581.3
2022-11-30T03:23:25.513Z,581.1
2022-11-30T03:24:27.991Z,580.8
2022-11-30T03:25:29.959Z,581
2022-11-30T03:26:32.173Z,581
2022-11-30T03:27:34.368Z,581.1
2022-11-30T03:28:36.575Z,580.4
2022-11-30T03:29:39.067Z,580.8
2022-11-30T03:30:41.542Z,580.7
2022-11-30T03:31:44.183Z,580.8
2022-11-30T03:32:46.703Z,580.3
2022-11-30T03:33:49.186Z,580.3
2022-11-30T03:34:51.935Z,580.3
2022-11-30T03:35:54.124Z,580.3
2022-11-30T03:36:56.331Z,579.9
2022-11-30T03:37:58.813Z,579.5
2022-11-30T03:39:00.758Z,580
2022-11-30T03:40:03.244Z,579.9
2022-11-30T03:41:05.771Z,579.7
2022-11-30T03:42:08.241Z,579.4
2022-11-30T03:43:10.443Z,580
2022-11-30T03:44:12.919Z,579.3
2022-11-30T03:45:15.424Z,579.4
2022-11-30T03:46:17.754Z,579.5
2022-11-30T03:47:20.082Z,579.9
2022-11-30T03:48:22.574Z,580
2022-11-30T03:49:24.498Z,579.9
2022-11-30T03:50:26.970Z,579.6
2022-11-30T03:51:29.452Z,580.2
2022-11-30T03:52:31.354Z,580.3
2022-11-30T03:53:33.533Z,580.7
2022-11-30T03:54:35.447Z,580.4
2022-11-30T03:55:37.644Z,580
2022-11-30T03:56:40.149Z,580.6
2022-11-30T03:57:42.633Z,580.8
2022-11-30T03:58:44.562Z,580.3
2022-11-30T03:59:47.036Z,580.5
2022-11-30T04:00:48.961Z,580.7
2022-11-30T04:01:51.519Z,580.4
2022-11-30T04:02:54.368Z,580.7
2022-11-30T04:03:56.849Z,580.3
2022-11-30T04:04:59.047Z,580
2022-11-30T04:06:01.546Z,579.7
2022-11-30T04:07:04.046Z,579.8
2022-11-30T04:08:06.234Z,579.6
2022-11-30T04:09:08.434Z,579.9
2022-11-30T04:10:10.988Z,579.3
2022-11-30T04:11:13.463Z,579.9
2022-11-30T04:12:15.995Z,580.1
2022-11-30T04:13:18.579Z,580.2
2022-11-30T04:14:21.091Z,580.9
2022-11-30T04:15:23.274Z,580.3
2022-11-30T04:16:26.045Z,580.5
2022-11-30T04:17:28.574Z,580.5
2022-11-30T04:18:31.158Z,580.9
2022-11-30T04:19:33.641Z,580.4
2022-11-30T04:21:41.101Z,581.2
2022-11-30T04:22:43.507Z,581.3
2022-11-30T04:23:45.984Z,581.5
2022-11-30T04:24:50.206Z,581.1
2022-11-30T04:25:52.504Z,581.3
2022-11-30T04:26:54.706Z,580.9
2022-11-30T04:27:56.931Z,580.1
2022-11-30T04:30:05.097Z,580.6
2022-11-30T04:31:07.978Z,579.8
2022-11-30T04:32:10.463Z,580.5
2022-11-30T04:33:12.386Z,580.1
2022-11-30T04:34:14.953Z,580.6
2022-11-30T04:35:17.424Z,580
2022-11-30T04:36:19.935Z,580.4
2022-11-30T04:37:22.140Z,580.3
2022-11-30T04:38:25.033Z,580.4
2022-11-30T04:39:27.683Z,580.2
2022-11-30T04:40:29.960Z,580.8
2022-11-30T04:41:32.572Z,580.7
2022-11-30T04:42:34.812Z,579.9
2022-11-30T04:43:37.361Z,580.5
2022-11-30T04:44:39.871Z,580.1
2022-11-30T04:45:42.393Z,580
2022-11-30T04:46:45.000Z,580
2022-11-30T04:47:47.290Z,580.1
2022-11-30T04:48:49.810Z,579.9
2022-11-30T04:49:52.410Z,579.8
2022-11-30T04:50:54.627Z,579.3
2022-11-30T04:51:57.113Z,579.3
2022-11-30T04:52:59.047Z,579.1
2022-11-30T04:54:01.530Z,579.1
2022-11-30T04:55:03.747Z,579.1
2022-11-30T04:56:05.649Z,579.2
2022-11-30T04:57:07.852Z,578.9
2022-11-30T04:58:10.047Z,579.3
2022-11-30T04:59:12.370Z,579.2
2022-11-30T05:00:14.568Z,579.3
2022-11-30T05:01:17.334Z,579.1
2022-11-30T05:02:19.824Z,579
2022-11-30T05:03:22.295Z,579
2022-11-30T05:04:24.740Z,579.1
2022-11-30T05:05:27.365Z,579.1
2022-11-30T05:06:29.847Z,578.8
2022-11-30T05:07:32.020Z,579.2
2022-11-30T05:08:34.511Z,579.5
2022-11-30T05:09:36.712Z,579.1
2022-11-30T05:10:39.186Z,579.3
2022-11-30T05:11:41.662Z,579.4
2022-11-30T05:12:43.297Z,578.8
2022-11-30T05:13:45.785Z,578.6
2022-11-30T05:14:50.101Z,578.6
2022-11-30T05:15:52.846Z,578.6
2022-11-30T05:16:55.349Z,578.4
2022-11-30T05:17:57.834Z,578.6
2022-11-30T05:19:00.037Z,578.7
2022-11-30T05:20:02.520Z,578.4
2022-11-30T05:21:05.109Z,578.2
2022-11-30T05:22:07.593Z,578.3
2022-11-30T05:23:10.076Z,578.7
2022-11-30T05:24:12.575Z,578.8
2022-11-30T05:25:15.048Z,578.3
2022-11-30T05:26:17.521Z,578.6
2022-11-30T05:28:24.982Z,578.2
2022-11-30T05:29:26.907Z,578.2
2022-11-30T05:30:29.140Z,577.9
2022-11-30T05:31:31.760Z,578.1
2022-11-30T05:32:34.399Z,577.7
2022-11-30T05:33:36.595Z,578.1
2022-11-30T05:35:44.172Z,577.7
2022-11-30T05:36:46.742Z,577.8
2022-11-30T05:37:48.938Z,577.5
2022-11-30T05:38:51.428Z,577.8
2022-11-30T05:39:53.660Z,577.8
2022-11-30T05:40:55.567Z,577.8
2022-11-30T05:41:58.036Z,577.6
2022-11-30T05:43:00.249Z,577.3
2022-11-30T05:44:02.722Z,577.1
2022-11-30T05:45:04.925Z,577.1
2022-11-30T05:46:07.430Z,577
2022-11-30T05:47:10.319Z,576.7
2022-11-30T05:48:12.834Z,576.8
2022-11-30T05:49:15.333Z,576.8
2022-11-30T05:50:17.541Z,576.8
2022-11-30T05:51:19.759Z,577
2022-11-30T05:52:22.336Z,577.1
2022-11-30T05:53:24.823Z,577
2022-11-30T05:54:27.299Z,576.7
2022-11-30T05:55:29.501Z,576.6
2022-11-30T05:56:31.990Z,576.9
2022-11-30T05:57:34.032Z,576.9
2022-11-30T05:58:36.561Z,576.6
2022-11-30T05:59:39.024Z,576.8
2022-11-30T06:00:41.238Z,576.5
2022-11-30T06:01:44.347Z,576.2
2022-11-30T06:02:47.389Z,576.1
2022-11-30T06:03:49.679Z,576.1
2022-11-30T06:04:52.210Z,576.1
2022-11-30T06:05:54.762Z,576.3
2022-11-30T06:06:57.262Z,576
2022-11-30T06:07:59.870Z,576
2022-11-30T06:09:02.086Z,576.2
2022-11-30T06:10:04.560Z,576.1
2022-11-30T06:11:07.049Z,576.5
2022-11-30T06:12:09.529Z,576.2
2022-11-30T06:13:12.025Z,576.4
2022-11-30T06:14:14.506Z,576.4
2022-11-30T06:15:16.981Z,576.3
2022-11-30T06:16:19.502Z,576.1
2022-11-30T06:17:22.016Z,576.2
2022-11-30T06:18:24.214Z,576.3
2022-11-30T06:19:26.702Z,576.3
2022-11-30T06:20:29.169Z,576.4
2022-11-30T06:21:31.139Z,576.7
2022-11-30T06:22:33.339Z,576.8
2022-11-30T06:23:36.172Z,576.5
2022-11-30T06:24:38.641Z,576.4
2022-11-30T06:25:41.116Z,576.7
2022-11-30T06:26:43.592Z,576.5
2022-11-30T06:27:46.090Z,576.9
2022-11-30T06:28:50.729Z,576.7
2022-11-30T06:29:52.928Z,577
2022-11-30T06:30:55.125Z,576.6
2022-11-30T06:31:57.351Z,576.8
2022-11-30T06:32:59.863Z,577
2022-11-30T06:34:02.337Z,576.7
2022-11-30T06:35:04.268Z,576.3
2022-11-30T06:36:06.172Z,576.2
2022-11-30T06:37:08.376Z,576.4
2022-11-30T06:38:10.848Z,576.5
2022-11-30T06:39:13.451Z,576.7
2022-11-30T06:40:15.928Z,577.1
2022-11-30T06:41:18.417Z,576.7
2022-11-30T06:42:20.626Z,576.6
2022-11-30T06:43:22.804Z,576.7
2022-11-30T06:44:25.294Z,576.4
2022-11-30T06:45:28.126Z,576.6
2022-11-30T06:46:30.349Z,576.7
2022-11-30T06:47:32.823Z,576.9
2022-11-30T06:48:35.342Z,576.8
2022-11-30T06:49:37.885Z,577.1
2022-11-30T06:50:42.340Z,577.2
2022-11-30T06:51:47.309Z,576.6
2022-11-30T06:52:49.241Z,576.2
2022-11-30T06:53:51.733Z,576.4
2022-11-30T06:54:54.391Z,576.1
2022-11-30T06:55:56.597Z,575.9
2022-11-30T06:56:59.077Z,576.1
2022-11-30T06:58:01.556Z,575.9
2022-11-30T06:59:04.035Z,576
2022-11-30T07:00:06.539Z,576.2
2022-11-30T07:01:09.193Z,575.8
2022-11-30T07:03:15.847Z,574.9
2022-11-30T07:04:18.356Z,574.9
2022-11-30T07:05:20.576Z,575
2022-11-30T07:06:22.834Z,575.3
2022-11-30T07:07:25.580Z,575.4
2022-11-30T07:08:27.521Z,575.5
2022-11-30T07:09:29.720Z,575.5
2022-11-30T07:10:32.282Z,575.6
2022-11-30T07:11:34.760Z,575.2
2022-11-30T07:12:37.242Z,575.4
2022-11-30T07:13:39.449Z,575.4
2022-11-30T07:14:41.922Z,575.4
2022-11-30T07:15:44.119Z,575.5
2022-11-30T07:16:46.514Z,575.5
2022-11-30T07:17:49.013Z,575.4
2022-11-30T07:18:51.212Z,575.4
2022-11-30T07:19:53.708Z,575.5
2022-11-30T07:20:55.914Z,576.1
2022-11-30T07:21:58.398Z,575.8
2022-11-30T07:23:00.607Z,575.9
2022-11-30T07:24:03.107Z,575.6
2022-11-30T07:25:05.588Z,575.4
2022-11-30T07:26:08.172Z,575.5
2022-11-30T07:27:10.650Z,575.3
2022-11-30T07:28:12.591Z,574.9
2022-11-30T07:29:14.770Z,575
2022-11-30T07:30:16.987Z,575
2022-11-30T07:31:19.721Z,575.2
2022-11-30T07:32:21.407Z,575.1
2022-11-30T07:33:23.874Z,574.8
2022-11-30T07:34:26.080Z,574.7
2022-11-30T07:35:28.314Z,574.5
2022-11-30T07:36:30.528Z,574.8
2022-11-30T07:37:32.458Z,574.6
2022-11-30T07:38:34.941Z,574.7
2022-11-30T07:39:37.125Z,574.5
2022-11-30T07:40:39.336Z,574.9
2022-11-30T07:41:41.633Z,574.7
2022-11-30T07:42:43.834Z,575
2022-11-30T07:43:45.758Z,574.7
2022-11-30T07:45:55.532Z,574.8
2022-11-30T07:46:58.021Z,574.8
2022-11-30T07:48:00.238Z,575.2
2022-11-30T07:49:02.725Z,575.1
2022-11-30T07:50:04.943Z,574.7
2022-11-30T07:51:07.452Z,575.1
2022-11-30T07:52:09.944Z,574.5
2022-11-30T07:53:11.583Z,574.5
2022-11-30T07:54:13.769Z,574.7
2022-11-30T07:55:15.975Z,574.3
2022-11-30T07:56:17.919Z,574.6
2022-11-30T07:57:20.585Z,574.7
2022-11-30T07:58:23.068Z,574.9
2022-11-30T07:59:24.992Z,574.7
2022-11-30T08:00:27.580Z,574.9
2022-11-30T08:01:30.858Z,574.7
2022-11-30T08:02:33.811Z,574.7
2022-11-30T08:04:41.676Z,574.9
2022-11-30T08:05:43.926Z,575.5
2022-11-30T08:06:46.458Z,575.1
2022-11-30T08:07:48.873Z,575.2
2022-11-30T08:08:51.453Z,575.5
2022-11-30T08:09:53.933Z,575.3
2022-11-30T08:10:56.138Z,575.3
2022-11-30T08:11:58.045Z,575.2
2022-11-30T08:13:00.673Z,575.1
2022-11-30T08:14:02.904Z,574.8
2022-11-30T08:16:10.333Z,574.5
2022-11-30T08:17:12.573Z,574
2022-11-30T08:18:15.059Z,574.2
2022-11-30T08:19:17.278Z,574
2022-11-30T08:20:18.686Z,574.2
2022-11-30T08:21:20.622Z,574.3
2022-11-30T08:22:23.132Z,574.3
2022-11-30T08:23:25.623Z,574.5
2022-11-30T08:24:28.310Z,574.2
2022-11-30T08:25:30.811Z,574.4
2022-11-30T08:26:33.312Z,574.4
2022-11-30T08:27:35.518Z,574.1
2022-11-30T08:28:38.111Z,574.4
2022-11-30T08:29:40.341Z,574.6
2022-11-30T08:30:43.296Z,574.5
2022-11-30T08:31:45.549Z,574.7
2022-11-30T08:32:48.055Z,574.3
2022-11-30T08:33:50.631Z,574.6
2022-11-30T08:34:52.668Z,574.4
2022-11-30T08:35:54.879Z,574.3
2022-11-30T08:36:57.379Z,574.1
2022-11-30T08:37:59.601Z,574.5
2022-11-30T08:39:02.104Z,574.4
2022-11-30T08:40:04.599Z,574.4
2022-11-30T08:41:06.825Z,574.5
2022-11-30T08:42:09.035Z,574.2
2022-11-30T08:43:10.966Z,574.1
2022-11-30T08:44:13.550Z,574
2022-11-30T08:45:16.021Z,574
2022-11-30T08:47:23.727Z,573.9
2022-11-30T08:48:25.949Z,573.9
2022-11-30T08:49:28.438Z,574.3
2022-11-30T08:50:30.349Z,574.1
2022-11-30T08:52:37.545Z,573.6
2022-11-30T08:53:39.533Z,573.7
2022-11-30T08:54:42.026Z,573.3
2022-11-30T08:55:44.509Z,572.9
2022-11-30T08:56:47.008Z,572.9
2022-11-30T08:57:49.490Z,573.1
2022-11-30T08:58:51.412Z,572.7
2022-11-30T08:59:53.978Z,573
2022-11-30T09:00:56.601Z,572.8
2022-11-30T09:01:58.571Z,572.8
2022-11-30T09:03:01.375Z,572.8
2022-11-30T09:04:03.630Z,572.7
2022-11-30T09:05:05.832Z,572.8
2022-11-30T09:06:08.313Z,572.7
2022-11-30T09:07:10.592Z,572.8
2022-11-30T09:08:12.837Z,572.5
2022-11-30T09:09:15.374Z,572.1
2022-11-30T09:10:17.020Z,572.6
2022-11-30T09:11:18.930Z,572.5
2022-11-30T09:12:21.431Z,572.2
2022-11-30T09:13:23.639Z,572.7
2022-11-30T09:14:25.838Z,572.4
2022-11-30T09:15:28.434Z,572.5
2022-11-30T09:16:30.929Z,572.3
2022-11-30T09:17:33.417Z,572.2
2022-11-30T09:18:35.898Z,572.2
2022-11-30T09:19:38.372Z,571.9
2022-11-30T09:20:40.286Z,572.2
2022-11-30T09:22:48.265Z,571.9
2022-11-30T09:23:50.747Z,572.4
2022-11-30T09:24:53.014Z,571.9
2022-11-30T09:25:55.248Z,571.9
2022-11-30T09:26:57.793Z,571.9
2022-11-30T09:28:00.028Z,571.8
2022-11-30T09:29:02.511Z,572
2022-11-30T09:30:05.001Z,571.8
2022-11-30T09:31:07.805Z,571.9
2022-11-30T09:32:10.322Z,572
2022-11-30T09:33:12.522Z,572
2022-11-30T09:34:14.457Z,572
2022-11-30T09:35:16.664Z,572.6
2022-11-30T09:36:18.869Z,572.6
2022-11-30T09:37:21.418Z,572.8
2022-11-30T09:38:23.374Z,572.7
2022-11-30T09:39:25.888Z,573
2022-11-30T09:41:33.098Z,572.9
2022-11-30T09:42:35.340Z,572.7
2022-11-30T09:43:37.276Z,572.6
2022-11-30T09:44:39.774Z,572.6
2022-11-30T09:45:42.363Z,572.9
2022-11-30T09:46:45.071Z,572.7
2022-11-30T09:47:47.574Z,572.6
2022-11-30T09:48:50.054Z,572.9
2022-11-30T09:49:51.981Z,573
2022-11-30T09:50:54.466Z,573.4
2022-11-30T09:51:56.953Z,573
2022-11-30T09:52:59.159Z,572.9
2022-11-30T09:54:01.365Z,572.6
2022-11-30T09:55:03.852Z,572.8
2022-11-30T09:56:06.353Z,572.6
2022-11-30T09:57:08.559Z,572.6
2022-11-30T09:58:10.770Z,572.4
2022-11-30T09:59:13.255Z,572.7
2022-11-30T10:00:15.751Z,572.3
2022-11-30T10:01:18.706Z,572.3
2022-11-30T10:02:22.225Z,572.6
2022-11-30T10:03:25.366Z,572.4
2022-11-30T10:04:27.882Z,573.1
2022-11-30T10:05:30.367Z,573
2022-11-30T10:06:32.582Z,573
2022-11-30T10:07:35.095Z,573
2022-11-30T10:08:37.820Z,573.1
2022-11-30T10:09:39.778Z,573.3
2022-11-30T10:10:42.259Z,573.4
2022-11-30T10:11:44.497Z,573.3
2022-11-30T10:12:46.732Z,573.6
2022-11-30T10:13:48.950Z,573.4
2022-11-30T10:15:58.298Z,573.4
2022-11-30T10:17:00.507Z,573.3
2022-11-30T10:18:03.112Z,573.1
2022-11-30T10:19:05.343Z,573.1
2022-11-30T10:20:07.830Z,573.1
2022-11-30T10:21:10.324Z,573.3
2022-11-30T10:22:12.560Z,573.1
2022-11-30T10:23:14.205Z,573.2
2022-11-30T10:24:16.715Z,573.4
2022-11-30T10:25:19.209Z,573.3
2022-11-30T10:26:22.022Z,573.1
2022-11-30T10:27:24.724Z,573.4
2022-11-30T10:29:32.201Z,573.3
2022-11-30T10:30:34.683Z,572.9
2022-11-30T10:31:37.323Z,573.3
2022-11-30T10:32:39.851Z,573.2
2022-11-30T10:33:42.509Z,572.9
2022-11-30T10:34:44.721Z,572.8
2022-11-30T10:35:47.148Z,573.1
2022-11-30T10:36:49.061Z,572.9
2022-11-30T10:37:50.993Z,573
2022-11-30T10:38:52.929Z,572.9
2022-11-30T10:39:55.418Z,572.6
2022-11-30T10:40:57.359Z,572.8
2022-11-30T10:41:59.835Z,573.3
2022-11-30T10:43:02.335Z,573
2022-11-30T10:44:04.828Z,573.3
2022-11-30T10:45:06.496Z,573.3
2022-11-30T10:47:13.974Z,573.6
2022-11-30T10:48:16.480Z,573.9
2022-11-30T10:49:19.101Z,573.8
2022-11-30T10:50:21.583Z,573.8
2022-11-30T10:51:24.092Z,574.1
2022-11-30T10:52:26.584Z,573.8
2022-11-30T10:53:28.782Z,574.2
2022-11-30T10:54:30.990Z,574.1
2022-11-30T10:55:33.491Z,574.6
2022-11-30T10:56:35.981Z,574.6
2022-11-30T10:57:38.192Z,574.7
2022-11-30T10:58:40.717Z,574.6
2022-11-30T10:59:42.976Z,574.5
2022-11-30T11:00:45.452Z,574.7
2022-11-30T11:01:47.878Z,574.2
2022-11-30T11:02:50.348Z,574.5
2022-11-30T11:03:53.239Z,574.6
2022-11-30T11:04:55.598Z,574.3
2022-11-30T11:05:57.825Z,574.8
2022-11-30T11:07:00.828Z,574.8
2022-11-30T11:09:08.136Z,574.8
2022-11-30T11:10:10.378Z,575.1
2022-11-30T11:11:12.861Z,575.3
2022-11-30T11:12:15.359Z,575.2
2022-11-30T11:13:17.560Z,575.4
2022-11-30T11:14:20.052Z,575.4
2022-11-30T11:15:22.569Z,574.9
2022-11-30T11:16:25.570Z,575.9
2022-11-30T11:17:27.876Z,575.3
2022-11-30T11:18:30.466Z,575.6
2022-11-30T11:19:32.668Z,575.4
2022-11-30T11:20:35.478Z,575.5
2022-11-30T11:21:37.987Z,575.7
2022-11-30T11:22:40.466Z,575.5
2022-11-30T11:23:42.951Z,575.7
2022-11-30T11:24:45.454Z,575.8
2022-11-30T11:25:47.954Z,575.6
2022-11-30T11:26:50.442Z,575.5
2022-11-30T11:27:52.386Z,575.4
2022-11-30T11:28:54.603Z,575.7
2022-11-30T11:29:57.108Z,575.5
2022-11-30T11:30:59.634Z,575.8
2022-11-30T11:32:01.935Z,575.3
2022-11-30T11:33:04.418Z,575.3
2022-11-30T11:34:06.615Z,575.7
2022-11-30T11:35:08.809Z,575.4
2022-11-30T11:36:11.094Z,575.2
2022-11-30T11:37:13.298Z,575.6
2022-11-30T11:38:15.526Z,575.7
2022-11-30T11:39:17.727Z,575.7
2022-11-30T11:40:20.216Z,575.5
2022-11-30T11:41:22.120Z,575.6
2022-11-30T11:42:24.760Z,575.9
2022-11-30T11:43:27.259Z,575.7
2022-11-30T11:44:29.540Z,575.6
2022-11-30T11:45:31.769Z,575.7
2022-11-30T11:46:34.421Z,575.9
2022-11-30T11:47:36.678Z,575.4
2022-11-30T11:48:38.897Z,575.6
2022-11-30T11:49:41.103Z,575.6
2022-11-30T11:51:48.373Z,576
2022-11-30T11:52:50.594Z,575.8
2022-11-30T11:54:58.067Z,575.7
2022-11-30T11:56:00.626Z,576
2022-11-30T11:57:03.142Z,576.1
2022-11-30T11:58:05.636Z,576.2
2022-11-30T11:59:07.568Z,576.3
2022-11-30T12:02:20.068Z,575.9
2022-11-30T12:03:22.584Z,576.2
2022-11-30T12:04:25.289Z,576.2
2022-11-30T12:05:27.529Z,576.1
2022-11-30T12:06:29.744Z,576.3
2022-11-30T12:07:32.802Z,576.2
2022-11-30T12:08:35.324Z,576.1
2022-11-30T12:09:37.799Z,576
2022-11-30T12:11:44.997Z,576.2
2022-11-30T12:13:51.904Z,576
2022-11-30T12:14:53.841Z,576.1
2022-11-30T12:15:56.876Z,576.2
2022-11-30T12:16:58.578Z,576.1
2022-11-30T12:18:01.075Z,576.8
2022-11-30T12:19:03.311Z,577
2022-11-30T12:20:05.345Z,576.9
2022-11-30T12:21:07.850Z,577
2022-11-30T12:22:10.365Z,577.2
2022-11-30T12:23:12.968Z,577.3
2022-11-30T12:24:15.371Z,576.8
2022-11-30T12:25:17.699Z,577.2
2022-11-30T12:26:19.897Z,576.8
2022-11-30T12:27:22.386Z,576.8
2022-11-30T12:28:24.604Z,577
2022-11-30T12:29:26.940Z,576.9
2022-11-30T12:30:29.168Z,576.7
2022-11-30T12:31:31.584Z,576.3
2022-11-30T12:32:33.834Z,576.8
2022-11-30T12:33:36.314Z,576.3
2022-11-30T12:34:38.801Z,576.1
2022-11-30T12:35:41.028Z,576.2
2022-11-30T12:36:43.512Z,576.1
2022-11-30T12:38:51.143Z,576.1
2022-11-30T12:39:53.643Z,575.8
2022-11-30T12:40:55.837Z,576.2
2022-11-30T12:41:58.031Z,576.3
2022-11-30T12:43:00.510Z,576
2022-11-30T12:44:03.232Z,576.2
2022-11-30T12:45:05.447Z,576.3
2022-11-30T12:46:08.202Z,576.5
2022-11-30T12:47:10.715Z,575.8
2022-11-30T12:48:13.263Z,576.5
2022-11-30T12:49:15.937Z,576
2022-11-30T12:50:18.210Z,576.4
2022-11-30T12:52:26.869Z,576.1
2022-11-30T12:53:29.384Z,576.2
2022-11-30T12:54:31.446Z,576.4
2022-11-30T12:55:33.927Z,576.5
2022-11-30T12:56:36.119Z,576.2
2022-11-30T12:57:38.345Z,576.4
2022-11-30T12:58:40.832Z,576
2022-11-30T12:59:43.216Z,576.3
2022-11-30T13:00:46.280Z,576.6
2022-11-30T13:01:49.118Z,576.8
2022-11-30T13:02:51.342Z,576.3
2022-11-30T13:03:53.857Z,576.5
2022-11-30T13:06:01.323Z,576.7
2022-11-30T13:07:03.543Z,576.7
2022-11-30T13:08:06.139Z,576.8
2022-11-30T13:09:08.643Z,576.7
2022-11-30T13:10:10.959Z,576.4
2022-11-30T13:11:13.176Z,576.6
2022-11-30T13:12:15.373Z,576.8
2022-11-30T13:13:17.594Z,576.8
2022-11-30T13:14:19.807Z,576.7
2022-11-30T13:15:22.049Z,576.9
2022-11-30T13:16:24.592Z,576
2022-11-30T13:17:26.882Z,576.6
2022-11-30T13:18:29.086Z,576.8
2022-11-30T13:19:31.363Z,576.6
2022-11-30T13:20:33.868Z,576.7
2022-11-30T13:21:35.828Z,576.6
2022-11-30T13:22:37.755Z,576.6
2022-11-30T13:23:40.005Z,576.6
2022-11-30T13:24:42.217Z,576.3
2022-11-30T13:26:49.866Z,576.7
2022-11-30T13:28:57.063Z,576.5
2022-11-30T13:29:59.279Z,576.3
2022-11-30T13:31:01.864Z,576.1
2022-11-30T13:32:03.814Z,576.1
2022-11-30T13:33:06.312Z,576.3
2022-11-30T13:34:08.797Z,576.4
2022-11-30T13:35:11.320Z,576
2022-11-30T13:36:13.526Z,576.3
2022-11-30T13:37:16.019Z,576.1
2022-11-30T13:39:23.246Z,576.2
2022-11-30T13:40:25.754Z,576.2
2022-11-30T13:41:27.735Z,576.4
2022-11-30T13:42:31.198Z,576.6
2022-11-30T13:43:33.686Z,576.4
2022-11-30T13:44:36.032Z,576.5
2022-11-30T13:45:37.715Z,576.3
2022-11-30T13:46:40.553Z,576.1
2022-11-30T13:47:43.092Z,575.8
2022-11-30T13:48:45.673Z,575.8
2022-11-30T13:49:48.273Z,576.1
2022-11-30T13:50:50.529Z,575.9
2022-11-30T13:52:58.233Z,576.1
2022-11-30T13:55:05.261Z,576
2022-11-30T13:56:07.768Z,576.2
2022-11-30T13:57:10.286Z,575.8
2022-11-30T13:58:12.894Z,575.5
2022-11-30T13:59:15.378Z,576.1
2022-11-30T14:00:17.853Z,576
2022-11-30T14:01:20.415Z,576